createdAt,value
2022-12-20T00:02:26.051Z,7.77
2022-12-20T00:07:28.656Z,8.03
2022-12-20T00:12:30.725Z,4.63
2022-12-20T00:17:33.040Z,7.10
2022-12-20T00:22:35.081Z,5.23
2022-12-20T00:27:37.150Z,6.47
2022-12-20T00:32:39.146Z,6.73
2022-12-20T00:37:41.218Z,5.70
2022-12-20T00:42:43.209Z,5.37
2022-12-20T00:47:46.943Z,7.80
2022-12-20T00:52:49.039Z,8.03
2022-12-20T00:57:51.053Z,6.00
2022-12-20T01:02:53.186Z,6.07
2022-12-20T01:07:55.427Z,5.60
2022-12-20T01:12:58.185Z,7.03
2022-12-20T01:18:00.163Z,8.40
2022-12-20T01:23:02.094Z,7.47
2022-12-20T01:28:04.428Z,7.33
2022-12-20T01:33:06.436Z,8.63
2022-12-20T01:38:08.443Z,9.47
2022-12-20T01:43:15.258Z,7.97
2022-12-20T01:48:26.023Z,8.30
2022-12-20T01:53:28.361Z,7.13
2022-12-20T01:58:32.581Z,7.53
2022-12-20T02:03:34.723Z,8.73
2022-12-20T02:08:36.917Z,9.60
2022-12-20T02:13:57.204Z,10.67
2022-12-20T02:19:21.852Z,7.67
2022-12-20T02:24:44.571Z,9.13
2022-12-20T02:30:10.362Z,9.27
2022-12-20T02:35:20.317Z,6.83
2022-12-20T02:40:32.440Z,8.20
2022-12-20T02:45:37.768Z,8.10
2022-12-20T02:50:51.308Z,7.53
2022-12-20T02:56:25.870Z,9.10
2022-12-20T03:01:37.861Z,9.60
2022-12-20T03:07:06.241Z,8.40
2022-12-20T03:12:14.713Z,8.77
2022-12-20T03:17:16.852Z,6.87
2022-12-20T03:22:19.104Z,6.40
2022-12-20T03:27:21.139Z,6.50
2022-12-20T03:32:23.402Z,5.83
2022-12-20T03:37:26.559Z,5.33
2022-12-20T03:42:29.349Z,6.00
2022-12-20T03:47:32.110Z,4.73
2022-12-20T03:52:37.626Z,7.33
2022-12-20T03:57:42.151Z,5.00
2022-12-20T04:02:58.638Z,4.37
2022-12-20T04:08:02.225Z,3.97
2022-12-20T04:13:04.615Z,4.83
2022-12-20T04:18:07.044Z,4.50
2022-12-20T04:23:09.224Z,3.57
2022-12-20T04:28:11.856Z,4.77
2022-12-20T04:33:14.707Z,4.70
2022-12-20T04:38:18.301Z,4.90
2022-12-20T04:43:24.189Z,4.90
2022-12-20T04:48:56.103Z,5.70
2022-12-20T04:53:52.916Z,4.83
2022-12-20T04:59:05.620Z,5.07
2022-12-20T05:04:09.249Z,4.07
2022-12-20T05:09:12.570Z,3.20
2022-12-20T05:14:14.942Z,3.87
2022-12-20T05:19:17.180Z,4.77
2022-12-20T05:24:38.375Z,4.23
2022-12-20T05:29:52.342Z,3.93
2022-12-20T05:34:56.843Z,4.00
2022-12-20T05:39:59.661Z,4.43
2022-12-20T05:45:03.128Z,4.43
2022-12-20T05:50:15.037Z,3.53
2022-12-20T05:55:54.491Z,4.20
2022-12-20T06:01:04.366Z,5.97
2022-12-20T06:06:14.596Z,3.77
2022-12-20T06:11:22.047Z,4.57
2022-12-20T06:16:36.352Z,4.23
2022-12-20T06:21:40.338Z,3.87
2022-12-20T06:26:44.808Z,3.40
2022-12-20T06:31:48.631Z,4.93
2022-12-20T06:36:51.310Z,4.00
2022-12-20T06:41:57.505Z,3.20
2022-12-20T06:47:01.934Z,4.03
2022-12-20T06:52:05.526Z,4.03
2022-12-20T06:57:36.822Z,4.23
2022-12-20T07:02:39.726Z,4.53
2022-12-20T07:07:45.099Z,4.23
2022-12-20T07:12:48.703Z,3.90
2022-12-20T07:17:51.626Z,2.93
2022-12-20T07:22:53.827Z,3.57
2022-12-20T07:27:56.186Z,3.27
2022-12-20T07:32:59.147Z,3.40
2022-12-20T07:38:01.430Z,2.60
2022-12-20T07:43:03.459Z,4.43
2022-12-20T07:48:12.352Z,5.20
2022-12-20T07:53:18.081Z,9.87
2022-12-20T07:58:21.609Z,6.27
2022-12-20T08:03:31.918Z,4.47
2022-12-20T08:08:41.029Z,3.57
2022-12-20T08:13:46.604Z,3.37
2022-12-20T08:18:49.579Z,2.43
2022-12-20T08:23:52.073Z,3.27
2022-12-20T08:28:55.885Z,3.33
2022-12-20T08:33:58.492Z,5.13
2022-12-20T08:39:08.031Z,2.47
2022-12-20T08:44:10.886Z,3.90
2022-12-20T08:49:13.013Z,3.90
2022-12-20T08:54:15.165Z,5.70
2022-12-20T08:59:17.351Z,2.70
2022-12-20T09:04:19.501Z,3.10
2022-12-20T09:09:21.570Z,2.43
2022-12-20T09:14:23.986Z,3.47
2022-12-20T09:19:26.251Z,3.47
2022-12-20T09:24:28.825Z,2.47
2022-12-20T09:29:35.411Z,3.07
2022-12-20T09:34:38.409Z,3.30
2022-12-20T09:39:40.577Z,2.93
2022-12-20T09:44:43.532Z,4.33
2022-12-20T09:49:51.013Z,2.53
2022-12-20T09:55:20.821Z,3.37
2022-12-20T10:00:23.472Z,3.10
2022-12-20T10:05:55.664Z,3.57
2022-12-20T10:11:30.566Z,2.50
2022-12-20T10:16:46.392Z,2.77
2022-12-20T10:22:10.713Z,2.57
2022-12-20T10:27:18.778Z,3.27
2022-12-20T10:32:24.592Z,3.63
2022-12-20T10:37:27.286Z,4.33
2022-12-20T10:42:40.804Z,5.47
2022-12-20T10:47:47.870Z,2.07
2022-12-20T10:53:11.377Z,2.27
2022-12-20T10:58:16.404Z,3.70
2022-12-20T11:03:24.731Z,6.20
2022-12-20T11:08:39.233Z,2.60
2022-12-20T11:13:47.119Z,3.27
2022-12-20T11:18:58.384Z,4.20
2022-12-20T11:24:32.101Z,2.50
2022-12-20T11:29:37.253Z,2.07
2022-12-20T11:34:55.233Z,12.97
2022-12-20T11:40:21.563Z,4.77
2022-12-20T11:45:42.621Z,2.80
2022-12-20T11:51:16.083Z,5.67
2022-12-20T11:56:44.283Z,3.70
2022-12-20T12:02:00.645Z,3.07
2022-12-20T12:07:14.178Z,2.97
2022-12-20T12:12:43.853Z,3.70
2022-12-20T12:18:02.687Z,3.77
2022-12-20T12:23:29.781Z,4.20
2022-12-20T12:28:33.306Z,4.13
2022-12-20T12:33:49.391Z,6.97
2022-12-20T12:39:36.535Z,5.77
2022-12-20T12:44:51.952Z,2.83
2022-12-20T12:49:56.975Z,3.60
2022-12-20T12:54:59.592Z,3.00
2022-12-20T13:00:27.122Z,2.37
2022-12-20T13:05:35.295Z,2.50
2022-12-20T13:10:37.314Z,6.47
2022-12-20T13:15:50.084Z,3.73
2022-12-20T13:21:35.437Z,2.47
2022-12-20T13:26:53.362Z,2.63
2022-12-20T13:31:59.562Z,2.27
2022-12-20T13:37:04.243Z,2.37
2022-12-20T13:42:21.255Z,4.30
2022-12-20T13:47:35.047Z,3.53
2022-12-20T13:52:44.837Z,2.80
2022-12-20T13:57:46.857Z,3.23
2022-12-20T14:02:56.108Z,3.23
2022-12-20T14:08:15.518Z,3.87
2022-12-20T14:13:24.593Z,2.50
2022-12-20T14:18:27.343Z,3.83
2022-12-20T14:23:40.885Z,3.67
2022-12-20T14:28:52.183Z,3.77
2022-12-20T14:34:12.083Z,4.83
2022-12-20T14:39:30.739Z,2.70
2022-12-20T14:44:34.388Z,4.93
2022-12-20T14:49:39.034Z,2.70
2022-12-20T14:55:07.786Z,2.63
2022-12-20T15:00:13.737Z,2.30
2022-12-20T15:05:34.124Z,3.00
2022-12-20T15:10:36.690Z,4.83
2022-12-20T15:15:39.006Z,5.07
2022-12-20T15:20:44.214Z,3.43
2022-12-20T15:25:47.085Z,2.67
2022-12-20T15:30:51.644Z,2.60
2022-12-20T15:35:54.295Z,2.87
2022-12-20T15:41:04.622Z,5.27
2022-12-20T15:46:06.823Z,3.40
2022-12-20T15:51:27.564Z,6.87
2022-12-20T15:56:30.247Z,4.23
2022-12-20T16:01:41.003Z,3.50
2022-12-20T16:06:44.922Z,2.57
2022-12-20T16:11:48.025Z,2.73
2022-12-20T16:16:50.372Z,3.07
2022-12-20T16:21:52.840Z,3.23
2022-12-20T16:26:55.067Z,3.47
2022-12-20T16:32:00.612Z,5.47
2022-12-20T16:37:02.753Z,4.50
2022-12-20T16:42:18.185Z,5.70
2022-12-20T16:47:20.776Z,4.43
2022-12-20T16:52:23.691Z,4.63
2022-12-20T16:57:26.182Z,5.60
2022-12-20T17:02:32.833Z,3.90
2022-12-20T17:07:41.101Z,2.77
2022-12-20T17:12:45.144Z,3.47
2022-12-20T17:17:48.651Z,3.97
2022-12-20T17:28:11.995Z,3.60
2022-12-20T17:33:15.649Z,4.30
2022-12-20T17:38:18.252Z,3.17
2022-12-20T17:43:20.463Z,2.83
2022-12-20T17:48:26.168Z,4.23
2022-12-20T17:53:31.166Z,3.67
2022-12-20T17:58:33.222Z,2.83
2022-12-20T18:04:02.821Z,3.43
2022-12-20T18:08:59.332Z,2.73
2022-12-20T18:14:02.496Z,3.13
2022-12-20T18:19:04.962Z,3.33
2022-12-20T18:24:10.629Z,3.43
2022-12-20T18:29:12.991Z,3.87
2022-12-20T18:34:15.098Z,4.20
2022-12-20T18:39:17.299Z,3.60
2022-12-20T18:44:19.310Z,3.80
2022-12-20T18:49:21.894Z,3.63
2022-12-20T18:54:23.968Z,3.63
2022-12-20T18:59:26.085Z,3.13
2022-12-20T19:04:28.897Z,3.37
2022-12-20T19:09:31.195Z,3.10
2022-12-20T19:14:33.261Z,3.33
2022-12-20T19:19:35.306Z,5.60
2022-12-20T19:24:37.529Z,4.23
2022-12-20T19:29:39.565Z,3.30
2022-12-20T19:34:41.795Z,2.70
2022-12-20T19:39:43.821Z,2.67
2022-12-20T19:44:46.308Z,3.30
2022-12-20T19:49:48.474Z,3.60
2022-12-20T19:55:00.832Z,3.43
2022-12-20T20:00:03.539Z,4.23
2022-12-20T20:05:15.415Z,3.77
2022-12-20T20:10:18.074Z,4.67
2022-12-20T20:15:20.410Z,3.83
2022-12-20T20:20:22.603Z,2.83
2022-12-20T20:25:24.705Z,4.40
2022-12-20T20:30:27.219Z,3.63
2022-12-20T20:35:29.706Z,3.30
2022-12-20T20:40:33.339Z,3.97
2022-12-20T20:45:35.569Z,3.83
2022-12-20T20:50:37.800Z,4.53
2022-12-20T20:55:41.652Z,3.80
2022-12-20T21:00:43.823Z,5.10
2022-12-20T21:06:33.056Z,5.80
2022-12-20T21:11:09.443Z,3.53
2022-12-20T21:16:21.187Z,3.43
2022-12-20T21:21:25.637Z,3.13
2022-12-20T21:26:28.341Z,2.70
2022-12-20T21:31:31.120Z,3.97
2022-12-20T21:36:33.723Z,2.57
2022-12-20T21:41:36.168Z,4.10
2022-12-20T21:46:38.628Z,2.70
2022-12-20T21:51:40.945Z,2.93
2022-12-20T21:56:43.057Z,2.80
2022-12-20T22:01:47.263Z,2.90
2022-12-20T22:06:49.769Z,3.23
2022-12-20T22:11:51.947Z,2.60
2022-12-20T22:16:55.496Z,2.87
2022-12-20T22:21:58.765Z,3.27
2022-12-20T22:27:04.939Z,2.73
2022-12-20T22:32:11.587Z,2.57
2022-12-20T22:37:13.786Z,3.27
2022-12-20T22:42:16.195Z,4.33
2022-12-20T22:47:18.294Z,2.60
2022-12-20T22:52:21.844Z,3.37
2022-12-20T22:57:23.928Z,3.03
2022-12-20T23:02:27.533Z,3.20
2022-12-20T23:07:30.123Z,2.53
2022-12-20T23:12:51.198Z,3.50
2022-12-20T23:17:53.346Z,2.67
2022-12-20T23:22:56.566Z,4.60
2022-12-20T23:27:59.356Z,3.30
2022-12-20T23:33:02.137Z,3.00
2022-12-20T23:38:04.298Z,4.00
2022-12-20T23:43:06.391Z,3.20
2022-12-20T23:48:08.426Z,2.50
2022-12-20T23:53:10.754Z,3.97
2022-12-20T23:58:12.804Z,3.43
